ADDS METAR Data INFO
IDs: Format: Raw Decoded Include TAF

Data at: 1921 UTC 19 Jul 2018

K46D 191915Z AUTO VRB04KT 10SM FEW095 SCT120 26/18 A2987 RMK AO2
K46D 191855Z AUTO 20004KT 10SM SCT095 BKN120 25/18 A2987 RMK AO2
K46D 191835Z AUTO 22003KT 10SM FEW120 25/17 A2987 RMK AO2
K46D 191815Z AUTO VRB04KT 10SM CLR 25/17 A2986 RMK AO2
K46D 191755Z AUTO 23003KT 10SM CLR 25/17 A2986 RMK AO2
K46D 191735Z AUTO 00000KT 10SM CLR 24/17 A2986 RMK AO2
K46D 191715Z AUTO 27007KT 10SM CLR 23/18 A2987 RMK AO2
K46D 191655Z AUTO 26004KT 10SM CLR 23/18 A2986 RMK AO2
K46D 191635Z AUTO 00000KT 10SM CLR 22/16 A2986 RMK AO2
K46D 191615Z AUTO 00000KT 10SM CLR 22/17 A2986 RMK AO2
K46D 191555Z AUTO 00000KT 10SM CLR 22/17 A2986 RMK AO2
K46D 191535Z AUTO 28005KT 10SM CLR 21/17 A2987 RMK AO2
K46D 191515Z AUTO 15003KT 10SM CLR 21/17 A2986 RMK AO2
K46D 191455Z AUTO 00000KT 10SM FEW065 21/17 A2986 RMK AO2
K46D 191435Z AUTO 29004KT 10SM CLR 21/18 A2987 RMK AO2
K46D 191415Z AUTO 28003KT 10SM CLR 20/18 A2987 RMK AO2
K46D 191355Z AUTO 26003KT 10SM FEW120 19/17 A2987 RMK AO2
K46D 191335Z AUTO 00000KT 10SM CLR 19/18 A2987 RMK AO2
K46D 191315Z AUTO 00000KT 10SM CLR 19/17 A2986 RMK AO2
K46D 191255Z AUTO 27004KT 10SM CLR 18/17 A2986 RMK AO2
K46D 191235Z AUTO 30006KT 10SM -DZ CLR 18/17 A2987 RMK AO2
K46D 191215Z AUTO 00000KT 10SM CLR 18/17 A2987 RMK AO2
K46D 191155Z AUTO 31003KT 10SM FEW039 FEW049 FEW065 18/16 A2987 RMK AO2
K46D 191135Z AUTO 00000KT 8SM -DZ FEW013 SCT033 BKN044 18/16 A2986 RMK AO2
K46D 191115Z AUTO 00000KT 10SM -RA FEW013 SCT032 BKN047 19/15 A2986 RMK AO2
K46D 191055Z AUTO VRB04KT 7SM RA FEW019 FEW033 BKN048 18/15 A2985 RMK AO2
K46D 191035Z AUTO 13006KT 10SM CLR 18/16 A2985 RMK AO2
K46D 191015Z AUTO 13009KT 10SM FEW065 SCT075 19/17 A2986 RMK AO2
K46D 190955Z AUTO 15009KT 10SM FEW018 SCT046 BKN060 18/18 A2985 RMK AO2
K46D 190935Z AUTO 16005KT 9SM FEW025 FEW034 SCT044 19/17 A2985 RMK AO2
K46D 190915Z AUTO 00000KT 10SM FEW055 FEW065 18/17 A2986 RMK AO2
K46D 190855Z AUTO VRB04KT 10SM CLR 18/17 A2987 RMK AO2
K46D 190835Z AUTO 00000KT 10SM CLR 18/17 A2987 RMK AO2
K46D 190815Z AUTO 00000KT 10SM CLR 18/17 A2987 RMK AO2
K46D 190755Z AUTO 00000KT 10SM CLR 19/17 A2988 RMK AO2
K46D 190735Z AUTO 00000KT 10SM CLR 19/17 A2988 RMK AO2
K46D 190715Z AUTO 00000KT 10SM CLR 19/17 A2988 RMK AO2
K46D 190655Z AUTO 00000KT 10SM CLR 18/16 A2989 RMK AO2
K46D 190635Z AUTO 00000KT 10SM CLR 18/17 A2989 RMK AO2
K46D 190615Z AUTO 21003KT 10SM CLR 18/16 A2990 RMK AO2
K46D 190555Z AUTO 20004KT 10SM CLR 19/16 A2990 RMK AO2
K46D 190535Z AUTO 00000KT 10SM CLR 19/16 A2990 RMK AO2
K46D 190515Z AUTO 16003KT 10SM CLR 19/16 A2990 RMK AO2
K46D 190455Z AUTO 14005KT 10SM CLR 19/16 A2990 RMK AO2
K46D 190435Z AUTO 14006KT 9SM CLR 19/15 A2990 RMK AO2
K46D 190415Z AUTO 00000KT 10SM CLR 20/15 A2990 RMK AO2
K46D 190355Z AUTO 00000KT 10SM CLR 20/15 A2991 RMK AO2
K46D 190335Z AUTO 00000KT 10SM CLR 21/16 A2991 RMK AO2
K46D 190315Z AUTO 00000KT 10SM CLR 22/15 A2991 RMK AO2
K46D 190255Z AUTO 00000KT 7SM CLR 21/15 A2991 RMK AO2
K46D 190235Z AUTO 00000KT 10SM CLR 21/16 A2991 RMK AO2
K46D 190215Z AUTO 17004KT 10SM CLR 22/15 A2992 RMK AO2
K46D 190155Z AUTO 17003KT 10SM CLR 22/15 A2991 RMK AO2
K46D 190135Z AUTO 19003KT 10SM CLR 23/15 A2991 RMK AO2
K46D 190115Z AUTO 17006KT 10SM CLR 24/14 A2991 RMK AO2
K46D 190055Z AUTO 16007KT 10SM CLR 25/16 A2992 RMK AO2
K46D 190035Z AUTO 16010KT 10SM CLR 26/17 A2992 RMK AO2
K46D 190015Z AUTO 16009KT 10SM CLR 27/16 A2992 RMK AO2
K46D 182355Z AUTO 16011KT 10SM CLR 26/15 A2993 RMK AO2
K46D 182335Z AUTO 16009KT 10SM CLR 27/15 A2993 RMK AO2
K46D 182315Z AUTO 16011KT 10SM CLR 28/16 A2993 RMK AO2 LTG DSNT SW AND W
K46D 182255Z AUTO 16009KT 10SM CLR 29/17 A2993 RMK AO2 LTG DSNT SW AND NW
K46D 182235Z AUTO 16008KT 10SM CLR 28/17 A2994 RMK AO2 LTG DSNT NW
K46D 182215Z AUTO 15011KT 10SM CLR 28/19 A2993 RMK AO2 LTG DSNT W AND NW
K46D 182155Z AUTO 14012KT 10SM CLR 28/20 A2993 RMK AO2 LTG DSNT NW
K46D 182135Z AUTO 15014G19KT 10SM CLR 29/20 A2994 RMK AO2
K46D 182115Z AUTO 16011G17KT 10SM TS FEW041 SCT047 SCT090 29/19 A2994 RMK AO2 LTG DSNT N AND S AND NW
K46D 182055Z AUTO 18012G18KT 10SM TS BKN041 BKN080 BKN095 28/19 A2994 RMK AO2 LTG DSNT ALQDS
K46D 182035Z AUTO 13009G14KT 10SM VCTS FEW032 SCT040 SCT048 28/21 A2995 RMK AO2 LTG DSNT ALQDS
K46D 182015Z AUTO 16011KT 10SM FEW034 SCT039 BKN100 29/20 A2995 RMK AO2
K46D 181955Z AUTO 16007KT 10SM FEW027 FEW032 SCT039 28/21 A2996 RMK AO2
K46D 181935Z AUTO VRB06KT 10SM FEW026 28/22 A2997 RMK AO2
K46D 181915Z AUTO 18007KT 140V200 10SM CLR 28/22 A2997 RMK AO2
K46D 181855Z AUTO 18009KT 10SM CLR 28/21 A2998 RMK AO2
K46D 181835Z AUTO 20009KT 10SM CLR 29/21 A2998 RMK AO2
K46D 181815Z AUTO 20011KT 10SM FEW026 FEW120 28/21 A2998 RMK AO2
K46D 181755Z AUTO 18010KT 10SM FEW026 FEW120 29/21 A2998 RMK AO2
K46D 181735Z AUTO 17009G17KT 140V200 10SM CLR 27/21 A2999 RMK AO2
K46D 181715Z AUTO 18009KT 10SM CLR 26/20 A3000 RMK AO2
K46D 181655Z AUTO 18009KT 10SM FEW070 FEW090 25/20 A3000 RMK AO2
K46D 181635Z AUTO 15009KT 10SM FEW075 SCT090 24/20 A3001 RMK AO2
K46D 181615Z AUTO 14009KT 10SM CLR 24/19 A3001 RMK AO2
K46D 181555Z AUTO 15009KT 10SM CLR 24/19 A3001 RMK AO2
K46D 181535Z AUTO 14008KT 10SM FEW070 FEW080 23/19 A3002 RMK AO2
K46D 181515Z AUTO 15009KT 10SM FEW075 23/19 A3002 RMK AO2
K46D 181455Z AUTO 14010KT 10SM CLR 23/18 A3002 RMK AO2
K46D 181435Z AUTO 15008KT 10SM CLR 22/18 A3002 RMK AO2
K46D 181415Z AUTO 14009KT 10SM CLR 21/17 A3003 RMK AO2
K46D 181355Z AUTO 15010KT 10SM CLR 20/17 A3003 RMK AO2
K46D 181335Z AUTO 14008KT 10SM CLR 20/17 A3004 RMK AO2
K46D 181315Z AUTO 14009KT 10SM CLR 19/17 A3004 RMK AO2
K46D 181255Z AUTO 14008KT 10SM CLR 19/16 A3004 RMK AO2
K46D 181235Z AUTO 14009KT 10SM FEW060 SCT075 SCT090 18/16 A3004 RMK AO2
K46D 181215Z AUTO 14008KT 10SM BKN060 BKN070 BKN090 17/15 A3005 RMK AO2
K46D 181155Z AUTO 13007KT 10SM FEW060 SCT075 17/15 A3004 RMK AO2
K46D 181135Z AUTO 14007KT 10SM FEW060 SCT075 17/15 A3005 RMK AO2
K46D 181115Z AUTO 14008KT 10SM SCT065 SCT080 17/15 A3005 RMK AO2
K46D 181055Z AUTO 14008KT 10SM SCT060 16/14 A3005 RMK AO2
K46D 181035Z AUTO 14006KT 10SM FEW060 16/14 A3005 RMK AO2
K46D 181015Z AUTO 13007KT 10SM FEW055 16/14 A3005 RMK AO2
K46D 180955Z AUTO 14007KT 10SM SCT055 17/14 A3006 RMK AO2
K46D 180935Z AUTO 13008KT 10SM CLR 17/14 A3006 RMK AO2
K46D 180915Z AUTO 14008KT 10SM CLR 17/14 A3006 RMK AO2
K46D 180855Z AUTO 14008KT 10SM CLR 17/14 A3006 RMK AO2
K46D 180835Z AUTO 13008KT 10SM CLR 17/15 A3006 RMK AO2
K46D 180815Z AUTO 14008KT 10SM CLR 17/15 A3007 RMK AO2
K46D 180755Z AUTO 16009KT 10SM CLR 17/15 A3007 RMK AO2
K46D 180735Z AUTO 14007KT 10SM CLR 17/15 A3007 RMK AO2